createdAt,value
2016-09-02T00:00:25.999Z,24.26
2016-09-02T00:01:00.303Z,24.22
2016-09-02T00:01:34.601Z,24.24
2016-09-02T00:02:08.896Z,24.26
2016-09-02T00:02:43.211Z,24.22
2016-09-02T00:03:17.513Z,24.29
2016-09-02T00:03:51.798Z,24.22
2016-09-02T00:04:26.107Z,24.24
2016-09-02T00:05:00.404Z,24.22
2016-09-02T00:05:34.711Z,24.26
2016-09-02T00:06:09.019Z,24.26
2016-09-02T00:06:43.303Z,24.18
2016-09-02T00:07:17.602Z,24.26
2016-09-02T00:07:51.910Z,24.26
2016-09-02T00:08:26.196Z,24.22
2016-09-02T00:09:00.501Z,24.29
2016-09-02T00:09:34.813Z,24.22
2016-09-02T00:10:09.180Z,24.18
2016-09-02T00:10:43.476Z,24.11
2016-09-02T00:11:17.759Z,24.17
2016-09-02T00:11:52.053Z,24.19
2016-09-02T00:12:26.360Z,24.27
2016-09-02T00:13:00.645Z,24.19
2016-09-02T00:13:34.932Z,24.18
2016-09-02T00:14:09.224Z,24.18
2016-09-02T00:14:43.542Z,24.21
2016-09-02T00:15:17.825Z,24.15
2016-09-02T00:15:52.371Z,24.21
2016-09-02T00:16:26.689Z,24.14
2016-09-02T00:17:00.963Z,24.24
2016-09-02T00:17:35.244Z,24.26
2016-09-02T00:18:09.534Z,24.24
2016-09-02T00:18:43.836Z,24.18
2016-09-02T00:19:18.123Z,24.22
2016-09-02T00:19:52.420Z,24.21
2016-09-02T00:20:26.713Z,24.21
2016-09-02T00:21:01.027Z,24.19
2016-09-02T00:21:35.315Z,24.11
2016-09-02T00:22:09.609Z,24.15
2016-09-02T00:22:43.912Z,24.14
2016-09-02T00:23:18.213Z,24.17
2016-09-02T00:23:52.518Z,24.17
2016-09-02T00:24:26.810Z,24.18
2016-09-02T00:25:01.107Z,24.19
2016-09-02T00:25:35.417Z,24.18
2016-09-02T00:26:09.696Z,24.11
2016-09-02T00:26:43.983Z,24.15
2016-09-02T00:27:18.283Z,24.18
2016-09-02T00:27:52.583Z,24.08
2016-09-02T00:28:26.876Z,24.18
2016-09-02T00:29:01.162Z,24.09
2016-09-02T00:29:35.465Z,24.12
2016-09-02T00:30:09.762Z,24.12
2016-09-02T00:30:44.574Z,24.11
2016-09-02T00:31:18.870Z,24.19
2016-09-02T00:31:53.168Z,24.12
2016-09-02T00:32:27.465Z,24.14
2016-09-02T00:33:01.770Z,24.07
2016-09-02T00:33:36.056Z,24.08
2016-09-02T00:34:10.356Z,24.11
2016-09-02T00:34:44.661Z,24.08
2016-09-02T00:35:18.934Z,24.09
2016-09-02T00:35:53.230Z,24.07
2016-09-02T00:36:27.539Z,24.03
2016-09-02T00:37:01.868Z,24.03
2016-09-02T00:37:36.180Z,24.08
2016-09-02T00:38:10.493Z,24.14
2016-09-02T00:38:44.793Z,24.04
2016-09-02T00:39:19.088Z,24.04
2016-09-02T00:39:53.386Z,24.08
2016-09-02T00:40:27.677Z,24.04
2016-09-02T00:41:02.002Z,24.03
2016-09-02T00:41:36.308Z,24.09
2016-09-02T00:42:10.587Z,24.11
2016-09-02T00:42:44.871Z,24.07
2016-09-02T00:43:19.158Z,24.08
2016-09-02T00:43:53.451Z,24.09
2016-09-02T00:44:27.739Z,24.07
2016-09-02T00:45:02.058Z,24.04
2016-09-02T00:45:36.798Z,24.03
2016-09-02T00:46:11.088Z,24.07
2016-09-02T00:46:45.374Z,24
2016-09-02T00:47:19.667Z,24.11
2016-09-02T00:47:53.967Z,24
2016-09-02T00:48:28.251Z,24
2016-09-02T00:49:02.545Z,24
2016-09-02T00:49:36.854Z,24
2016-09-02T00:50:11.135Z,24.03
2016-09-02T00:50:45.431Z,23.97
2016-09-02T00:51:19.720Z,23.96
2016-09-02T00:51:54.018Z,24
2016-09-02T00:52:28.325Z,24.03
2016-09-02T00:53:02.630Z,24
2016-09-02T00:53:36.934Z,23.99
2016-09-02T00:54:11.244Z,24.02
2016-09-02T00:54:45.542Z,23.94
2016-09-02T00:55:20.012Z,23.99
2016-09-02T00:55:54.317Z,23.97
2016-09-02T00:56:28.609Z,23.97
2016-09-02T00:57:02.892Z,23.99
2016-09-02T00:57:37.197Z,23.94
2016-09-02T00:58:11.501Z,23.99
2016-09-02T00:58:45.810Z,23.99
2016-09-02T00:59:20.086Z,23.94
2016-09-02T00:59:54.377Z,23.97
2016-09-02T01:00:28.682Z,23.96
2016-09-02T01:01:03.004Z,24
2016-09-02T01:01:37.329Z,23.94
2016-09-02T01:02:11.634Z,24
2016-09-02T01:02:45.931Z,23.99
2016-09-02T01:03:20.225Z,23.93
2016-09-02T01:03:54.504Z,23.87
2016-09-02T01:04:28.808Z,23.99
2016-09-02T01:05:03.084Z,24
2016-09-02T01:05:37.382Z,23.89
2016-09-02T01:06:11.674Z,23.99
2016-09-02T01:06:45.963Z,23.92
2016-09-02T01:07:20.263Z,23.96
2016-09-02T01:07:54.572Z,23.9
2016-09-02T01:08:28.883Z,23.9
2016-09-02T01:09:03.211Z,23.94
2016-09-02T01:09:37.513Z,23.96
2016-09-02T01:10:11.810Z,23.92
2016-09-02T01:10:46.102Z,23.93
2016-09-02T01:11:20.395Z,23.92
2016-09-02T01:11:54.703Z,23.93
2016-09-02T01:12:28.991Z,23.87
2016-09-02T01:13:03.285Z,23.89
2016-09-02T01:13:37.587Z,23.85
2016-09-02T01:14:11.883Z,23.9
2016-09-02T01:14:46.186Z,23.97
2016-09-02T01:15:20.492Z,23.93
2016-09-02T01:15:54.815Z,23.9
2016-09-02T01:16:29.120Z,23.87
2016-09-02T01:17:03.445Z,23.93
2016-09-02T01:17:37.740Z,23.87
2016-09-02T01:18:12.044Z,23.96
2016-09-02T01:18:46.351Z,23.77
2016-09-02T01:19:20.662Z,23.81
2016-09-02T01:19:54.937Z,23.79
2016-09-02T01:20:29.235Z,23.87
2016-09-02T01:21:03.530Z,23.81
2016-09-02T01:21:37.829Z,23.81
2016-09-02T01:22:12.134Z,23.79
2016-09-02T01:22:46.433Z,23.79
2016-09-02T01:23:20.738Z,23.84
2016-09-02T01:23:55.032Z,23.85
2016-09-02T01:24:29.332Z,23.81
2016-09-02T01:25:03.621Z,23.84
2016-09-02T01:25:37.924Z,23.87
2016-09-02T01:26:12.217Z,23.74
2016-09-02T01:26:46.518Z,23.85
2016-09-02T01:27:20.814Z,23.82
2016-09-02T01:27:55.098Z,23.89
2016-09-02T01:28:29.401Z,23.82
2016-09-02T01:29:03.698Z,23.78
2016-09-02T01:29:38.026Z,23.85
2016-09-02T01:30:12.345Z,23.79
2016-09-02T01:30:46.650Z,23.77
2016-09-02T01:31:20.958Z,23.78
2016-09-02T01:31:55.248Z,23.74
2016-09-02T01:32:29.553Z,23.72
2016-09-02T01:33:03.842Z,23.79
2016-09-02T01:33:38.152Z,23.78
2016-09-02T01:34:12.456Z,23.78
2016-09-02T01:34:46.751Z,23.77
2016-09-02T01:35:21.035Z,23.78
2016-09-02T01:35:55.342Z,23.77
2016-09-02T01:36:29.651Z,23.75
2016-09-02T01:37:03.954Z,23.77
2016-09-02T01:37:38.263Z,23.74
2016-09-02T01:38:12.552Z,23.77
2016-09-02T01:38:46.848Z,23.77
2016-09-02T01:39:21.120Z,23.77
2016-09-02T01:39:55.407Z,23.75
2016-09-02T01:40:29.699Z,23.78
2016-09-02T01:41:03.994Z,23.74
2016-09-02T01:41:38.284Z,23.71
2016-09-02T01:42:12.579Z,23.71
2016-09-02T01:42:46.879Z,23.74
2016-09-02T01:43:21.210Z,23.72
2016-09-02T01:43:55.513Z,23.64
2016-09-02T01:44:29.815Z,23.74
2016-09-02T01:45:04.120Z,23.67
2016-09-02T01:45:38.739Z,23.71
2016-09-02T01:46:13.059Z,23.71
2016-09-02T01:46:47.365Z,23.71
2016-09-02T01:47:21.661Z,23.74
2016-09-02T01:47:55.945Z,23.72
2016-09-02T01:48:30.243Z,23.7
2016-09-02T01:49:04.549Z,23.71
2016-09-02T01:49:38.837Z,23.62
2016-09-02T01:50:13.150Z,23.67
2016-09-02T01:50:47.452Z,23.66
2016-09-02T01:51:21.738Z,23.72
2016-09-02T01:51:56.040Z,23.67
2016-09-02T01:52:30.331Z,23.71
2016-09-02T01:53:04.616Z,23.64
2016-09-02T01:53:38.913Z,23.66
2016-09-02T01:54:13.209Z,23.67
2016-09-02T01:54:47.499Z,23.67
2016-09-02T01:55:21.800Z,23.7
2016-09-02T01:55:56.478Z,23.64
2016-09-02T01:56:30.761Z,23.7
2016-09-02T01:57:05.048Z,23.66
2016-09-02T01:57:39.350Z,23.7
2016-09-02T01:58:13.632Z,23.62
2016-09-02T01:58:47.930Z,23.62
2016-09-02T01:59:22.222Z,23.63
2016-09-02T01:59:56.527Z,23.57
2016-09-02T02:00:30.832Z,23.67
2016-09-02T02:01:05.128Z,23.62
2016-09-02T02:01:39.410Z,23.62
2016-09-02T02:02:13.699Z,23.63
2016-09-02T02:02:47.987Z,23.6
2016-09-02T02:03:22.276Z,23.57
2016-09-02T02:03:56.583Z,23.6
2016-09-02T02:04:30.907Z,23.6
2016-09-02T02:05:05.385Z,23.62
2016-09-02T02:05:39.678Z,23.57
2016-09-02T02:06:14.001Z,23.62
2016-09-02T02:06:48.291Z,23.62
2016-09-02T02:07:22.605Z,23.59
2016-09-02T02:07:56.899Z,23.52
2016-09-02T02:08:31.215Z,23.57
2016-09-02T02:09:05.508Z,23.56
2016-09-02T02:09:39.796Z,23.6
2016-09-02T02:10:14.113Z,23.56
2016-09-02T02:10:48.503Z,23.53
2016-09-02T02:11:22.813Z,23.52
2016-09-02T02:11:57.103Z,23.53
2016-09-02T02:12:32.425Z,23.53
2016-09-02T02:13:07.627Z,23.53
2016-09-02T02:13:41.917Z,23.55
2016-09-02T02:14:16.209Z,23.52
2016-09-02T02:14:50.511Z,23.52
2016-09-02T02:15:24.808Z,23.57
2016-09-02T02:15:59.109Z,23.56
2016-09-02T02:16:33.389Z,23.55
2016-09-02T02:17:07.698Z,23.48
2016-09-02T02:17:42.025Z,23.56
2016-09-02T02:18:16.315Z,23.6
2016-09-02T02:18:50.615Z,23.62
2016-09-02T02:19:24.910Z,23.55
2016-09-02T02:19:59.209Z,23.59
2016-09-02T02:20:33.504Z,23.48
2016-09-02T02:21:07.812Z,23.53
2016-09-02T02:21:42.155Z,23.47
2016-09-02T02:22:16.461Z,23.48
2016-09-02T02:22:50.764Z,23.48
2016-09-02T02:23:25.051Z,23.45
2016-09-02T02:23:59.364Z,23.45
2016-09-02T02:24:33.675Z,23.47
2016-09-02T02:25:07.972Z,23.42
2016-09-02T02:25:42.269Z,23.48
2016-09-02T02:26:16.558Z,23.45
2016-09-02T02:26:50.843Z,23.44
2016-09-02T02:27:25.154Z,23.47
2016-09-02T02:27:59.436Z,23.48
2016-09-02T02:28:33.749Z,23.44
2016-09-02T02:29:08.054Z,23.45
2016-09-02T02:29:42.361Z,23.45
2016-09-02T02:30:16.722Z,23.42
2016-09-02T02:30:51.020Z,23.47
2016-09-02T02:31:25.314Z,23.45
2016-09-02T02:31:59.629Z,23.45
2016-09-02T02:32:33.933Z,23.48
2016-09-02T02:33:08.241Z,23.48
2016-09-02T02:33:42.518Z,23.41
2016-09-02T02:34:16.813Z,23.47
2016-09-02T02:34:51.107Z,23.4
2016-09-02T02:35:25.673Z,23.45
2016-09-02T02:35:59.976Z,23.41
2016-09-02T02:36:34.261Z,23.42
2016-09-02T02:37:08.548Z,23.47
2016-09-02T02:37:42.860Z,23.48
2016-09-02T02:38:17.164Z,23.44
2016-09-02T02:38:51.434Z,23.37
2016-09-02T02:39:25.712Z,23.42
2016-09-02T02:39:59.999Z,23.44
2016-09-02T02:40:34.305Z,23.5
2016-09-02T02:41:08.590Z,23.47
2016-09-02T02:41:42.889Z,23.41
2016-09-02T02:42:17.177Z,23.42
2016-09-02T02:42:51.469Z,23.37
2016-09-02T02:43:25.782Z,23.35
2016-09-02T02:44:00.092Z,23.42
2016-09-02T02:44:34.399Z,23.44
2016-09-02T02:45:08.688Z,23.45
2016-09-02T02:45:42.997Z,23.37
2016-09-02T02:46:17.284Z,23.41
2016-09-02T02:46:51.594Z,23.34
2016-09-02T02:47:25.905Z,23.41
2016-09-02T02:48:00.193Z,23.42
2016-09-02T02:48:34.507Z,23.35
2016-09-02T02:49:08.799Z,23.4
2016-09-02T02:49:43.086Z,23.41
2016-09-02T02:50:17.373Z,23.37
2016-09-02T02:50:51.672Z,23.37
2016-09-02T02:51:25.961Z,23.32
2016-09-02T02:52:00.252Z,23.4
2016-09-02T02:52:34.541Z,23.4
2016-09-02T02:53:08.824Z,23.35
2016-09-02T02:53:43.118Z,23.4
2016-09-02T02:54:17.411Z,23.37
2016-09-02T02:54:51.725Z,23.4
2016-09-02T02:55:26.031Z,23.38
2016-09-02T02:56:00.317Z,23.41
2016-09-02T02:56:34.601Z,23.32
2016-09-02T02:57:08.902Z,23.4
2016-09-02T02:57:43.187Z,23.38
2016-09-02T02:58:17.486Z,23.4
2016-09-02T02:58:51.785Z,23.38
2016-09-02T02:59:26.079Z,23.42
2016-09-02T03:00:00.375Z,23.4
2016-09-02T03:00:34.848Z,23.4
2016-09-02T03:01:09.149Z,23.35
2016-09-02T03:01:43.455Z,23.38
2016-09-02T03:02:17.743Z,23.4
2016-09-02T03:02:52.038Z,23.35
2016-09-02T03:03:26.319Z,23.4
2016-09-02T03:04:00.623Z,23.38
2016-09-02T03:04:34.906Z,23.41
2016-09-02T03:05:09.205Z,23.41
2016-09-02T03:05:43.525Z,23.37
2016-09-02T03:06:17.836Z,23.38
2016-09-02T03:06:52.124Z,23.42
2016-09-02T03:07:26.430Z,23.38
2016-09-02T03:08:00.710Z,23.37
2016-09-02T03:08:35.020Z,23.38
2016-09-02T03:09:09.318Z,23.44
2016-09-02T03:09:43.607Z,23.26
2016-09-02T03:10:17.952Z,23.44
2016-09-02T03:10:52.245Z,23.4
2016-09-02T03:11:26.533Z,23.37
2016-09-02T03:12:00.834Z,23.38
2016-09-02T03:12:35.109Z,23.34
2016-09-02T03:13:09.407Z,23.4
2016-09-02T03:13:43.726Z,23.37
2016-09-02T03:14:18.067Z,23.37
2016-09-02T03:14:52.370Z,23.42
2016-09-02T03:15:26.679Z,23.4
2016-09-02T03:16:00.957Z,23.26
2016-09-02T03:16:35.245Z,23.24
2016-09-02T03:17:09.535Z,23.25
2016-09-02T03:17:43.828Z,23.22
2016-09-02T03:18:18.116Z,23.37
2016-09-02T03:18:52.434Z,23.32
2016-09-02T03:19:26.742Z,23.29
2016-09-02T03:20:01.054Z,23.24
2016-09-02T03:20:35.352Z,23.34
2016-09-02T03:21:09.640Z,23.29
2016-09-02T03:21:43.945Z,23.35
2016-09-02T03:22:18.236Z,23.34
2016-09-02T03:22:52.529Z,23.25
2016-09-02T03:23:26.845Z,23.24
2016-09-02T03:24:01.144Z,23.29
2016-09-02T03:24:35.446Z,23.22
2016-09-02T03:25:09.753Z,23.22
2016-09-02T03:25:44.315Z,23.22
2016-09-02T03:26:18.615Z,23.24
2016-09-02T03:26:52.925Z,23.25
2016-09-02T03:27:27.217Z,23.21
2016-09-02T03:28:01.552Z,23.25
2016-09-02T03:28:35.861Z,23.22
2016-09-02T03:29:10.164Z,23.29
2016-09-02T03:29:44.482Z,23.28
2016-09-02T03:30:18.783Z,23.26
2016-09-02T03:30:53.073Z,23.25
2016-09-02T03:31:27.382Z,23.28
2016-09-02T03:32:01.685Z,23.22
2016-09-02T03:32:35.983Z,23.25
2016-09-02T03:33:10.284Z,23.28
2016-09-02T03:33:44.590Z,23.34
2016-09-02T03:34:18.886Z,23.21
2016-09-02T03:34:53.180Z,23.32
2016-09-02T03:35:27.475Z,23.24
2016-09-02T03:36:01.775Z,23.25
2016-09-02T03:36:36.061Z,23.28
2016-09-02T03:37:10.347Z,23.21
2016-09-02T03:37:44.645Z,23.29
2016-09-02T03:38:18.945Z,23.25
2016-09-02T03:38:53.222Z,23.28
2016-09-02T03:39:27.527Z,23.25
2016-09-02T03:40:01.839Z,23.19
2016-09-02T03:40:36.134Z,23.25
2016-09-02T03:41:10.444Z,23.26
2016-09-02T03:41:44.738Z,23.22
2016-09-02T03:42:19.026Z,23.22
2016-09-02T03:42:53.320Z,23.26
2016-09-02T03:43:27.624Z,23.25
2016-09-02T03:44:01.919Z,23.21
2016-09-02T03:44:36.209Z,23.25
2016-09-02T03:45:10.511Z,23.14
2016-09-02T03:45:44.799Z,23.26
2016-09-02T03:46:19.078Z,23.18
2016-09-02T03:46:53.366Z,23.29
2016-09-02T03:47:27.671Z,23.22
2016-09-02T03:48:01.975Z,23.25
2016-09-02T03:48:36.283Z,23.25
2016-09-02T03:49:10.592Z,23.21
2016-09-02T03:49:44.924Z,23.18
2016-09-02T03:50:19.217Z,23.18
2016-09-02T03:50:53.568Z,23.21
2016-09-02T03:51:27.894Z,23.18
2016-09-02T03:52:02.204Z,23.21
2016-09-02T03:52:36.493Z,23.18
2016-09-02T03:53:10.791Z,23.15
2016-09-02T03:53:45.095Z,23.26
2016-09-02T03:54:19.399Z,23.09
2016-09-02T03:54:53.702Z,23.1
2016-09-02T03:55:27.991Z,23.16
2016-09-02T03:56:02.314Z,23.22
2016-09-02T03:56:36.607Z,23.12
2016-09-02T03:57:10.910Z,23.1
2016-09-02T03:57:45.221Z,23.14
2016-09-02T03:58:19.536Z,23.15
2016-09-02T03:58:53.837Z,23.06
2016-09-02T03:59:28.136Z,23.19
2016-09-02T04:00:02.440Z,23.16
2016-09-02T04:00:36.741Z,23.15
2016-09-02T04:01:11.045Z,23.1
2016-09-02T04:01:45.350Z,23.18
2016-09-02T04:02:19.657Z,23.14
2016-09-02T04:02:53.940Z,23.06
2016-09-02T04:03:28.253Z,23.09
2016-09-02T04:04:02.555Z,23.14
2016-09-02T04:04:38.039Z,23.04
2016-09-02T04:05:12.329Z,23.1
2016-09-02T04:05:46.621Z,23.15
2016-09-02T04:06:20.929Z,23.07
2016-09-02T04:06:55.216Z,23.06
2016-09-02T04:07:29.514Z,23.19
2016-09-02T04:08:03.826Z,23.09
2016-09-02T04:08:38.115Z,23.09
2016-09-02T04:09:12.437Z,23.06
2016-09-02T04:09:46.733Z,23.07
2016-09-02T04:10:21.042Z,23.06
2016-09-02T04:10:55.340Z,23.04
2016-09-02T04:11:29.639Z,23.12
2016-09-02T04:12:03.936Z,23.07
2016-09-02T04:12:38.241Z,23.04
2016-09-02T04:13:12.530Z,23.04
2016-09-02T04:13:46.809Z,23.09
2016-09-02T04:14:21.101Z,23.09
2016-09-02T04:14:55.380Z,23.09
2016-09-02T04:15:29.697Z,23.09
2016-09-02T04:16:03.994Z,23.09
2016-09-02T04:16:38.310Z,23.04
2016-09-02T04:17:12.632Z,23.09
2016-09-02T04:17:46.930Z,23.09
2016-09-02T04:18:21.214Z,23.09
2016-09-02T04:18:55.508Z,23.09
2016-09-02T04:19:29.807Z,23.09
2016-09-02T04:20:04.100Z,23.14
2016-09-02T04:20:38.966Z,23.07
2016-09-02T04:21:13.270Z,23.04
2016-09-02T04:21:47.563Z,23.09
2016-09-02T04:22:21.864Z,23.1
2016-09-02T04:22:56.156Z,23.12
2016-09-02T04:23:30.480Z,23.1
2016-09-02T04:24:04.784Z,23.12
2016-09-02T04:24:39.100Z,23.03
2016-09-02T04:25:13.422Z,23.03
2016-09-02T04:25:47.715Z,23.03
2016-09-02T04:26:22.013Z,23.12
2016-09-02T04:26:56.306Z,23.07
2016-09-02T04:27:30.593Z,22.99
2016-09-02T04:28:04.890Z,23.01
2016-09-02T04:28:39.190Z,23.03
2016-09-02T04:29:13.526Z,23.04
2016-09-02T04:29:47.822Z,23.07
2016-09-02T04:30:22.131Z,23.03
2016-09-02T04:30:56.421Z,23.01
2016-09-02T04:31:30.719Z,23.06
2016-09-02T04:32:05.017Z,23.09
2016-09-02T04:32:39.333Z,23.04
2016-09-02T04:33:13.633Z,23
2016-09-02T04:33:47.942Z,23.03
2016-09-02T04:34:22.257Z,22.99
2016-09-02T04:34:56.548Z,23.09
2016-09-02T04:35:30.832Z,23.04
2016-09-02T04:36:05.115Z,22.94
2016-09-02T04:36:39.419Z,23.07
2016-09-02T04:37:13.708Z,23.03
2016-09-02T04:37:48.018Z,23.01
2016-09-02T04:38:22.309Z,22.97
2016-09-02T04:38:56.619Z,23.03
2016-09-02T04:39:30.921Z,23.04
2016-09-02T04:40:05.206Z,22.99
2016-09-02T04:40:39.500Z,22.97
2016-09-02T04:41:13.824Z,23.07
2016-09-02T04:41:48.112Z,23.09
2016-09-02T04:42:22.405Z,23.03
2016-09-02T04:42:56.694Z,22.94
2016-09-02T04:43:30.985Z,23.04
2016-09-02T04:44:05.281Z,22.97
2016-09-02T04:44:39.592Z,23.06
2016-09-02T04:45:13.870Z,23
2016-09-02T04:45:48.246Z,23
2016-09-02T04:46:22.552Z,22.99
2016-09-02T04:46:56.857Z,22.99
2016-09-02T04:47:31.138Z,22.99
2016-09-02T04:48:05.449Z,23.03
2016-09-02T04:48:39.727Z,23.03
2016-09-02T04:49:14.025Z,23.01
2016-09-02T04:49:48.335Z,23.01
2016-09-02T04:50:22.647Z,23
2016-09-02T04:50:56.985Z,22.99
2016-09-02T04:51:31.262Z,23
2016-09-02T04:52:05.564Z,22.99
2016-09-02T04:52:39.852Z,22.97
2016-09-02T04:53:14.136Z,23.04
2016-09-02T04:53:48.433Z,22.99
2016-09-02T04:54:22.732Z,23
2016-09-02T04:54:57.038Z,22.96
2016-09-02T04:55:31.346Z,22.89
2016-09-02T04:56:05.660Z,22.96
2016-09-02T04:56:39.944Z,22.96
2016-09-02T04:57:14.237Z,22.89
2016-09-02T04:57:48.521Z,22.99
2016-09-02T04:58:22.818Z,22.97
2016-09-02T04:58:57.114Z,22.96
2016-09-02T04:59:31.417Z,22.96
2016-09-02T05:00:05.736Z,22.91
2016-09-02T05:00:40.017Z,22.99
2016-09-02T05:01:14.342Z,22.94
2016-09-02T05:01:48.653Z,22.97
2016-09-02T05:02:22.973Z,22.96
2016-09-02T05:02:57.329Z,23
2016-09-02T05:03:31.658Z,22.91
2016-09-02T05:04:05.949Z,22.96
2016-09-02T05:04:40.263Z,23.01
2016-09-02T05:05:14.563Z,22.99
2016-09-02T05:05:49.200Z,22.91
2016-09-02T05:06:23.488Z,22.86
2016-09-02T05:06:57.788Z,22.86
2016-09-02T05:07:32.092Z,22.99
2016-09-02T05:08:06.394Z,22.91
2016-09-02T05:08:40.703Z,22.89
2016-09-02T05:09:14.995Z,22.94
2016-09-02T05:09:49.311Z,22.92
2016-09-02T05:10:23.597Z,22.94
2016-09-02T05:10:57.890Z,22.96
2016-09-02T05:11:32.219Z,22.94
2016-09-02T05:12:06.511Z,22.86
2016-09-02T05:12:40.819Z,22.96
2016-09-02T05:13:16.520Z,22.96
2016-09-02T05:13:50.819Z,22.97
2016-09-02T05:14:25.257Z,22.97
2016-09-02T05:14:59.538Z,22.96
2016-09-02T05:15:33.853Z,22.91
2016-09-02T05:16:08.133Z,22.94
2016-09-02T05:16:42.422Z,22.94
2016-09-02T05:17:16.727Z,22.97
2016-09-02T05:17:51.022Z,22.91
2016-09-02T05:18:25.320Z,22.89
2016-09-02T05:18:59.613Z,22.86
2016-09-02T05:19:33.889Z,22.88
2016-09-02T05:20:08.215Z,22.96
2016-09-02T05:20:42.563Z,22.97
2016-09-02T05:21:16.859Z,22.91
2016-09-02T05:21:51.162Z,22.97
2016-09-02T05:22:25.457Z,22.89
2016-09-02T05:22:59.747Z,22.97
2016-09-02T05:23:35.011Z,22.96
2016-09-02T05:24:09.297Z,22.88
2016-09-02T05:24:43.594Z,23
2016-09-02T05:25:17.890Z,22.92
2016-09-02T05:25:52.194Z,22.88
2016-09-02T05:26:26.502Z,22.91
2016-09-02T05:27:00.813Z,22.89
2016-09-02T05:27:36.604Z,22.94
2016-09-02T05:28:11.974Z,23.01
2016-09-02T05:28:46.261Z,22.88
2016-09-02T05:29:21.434Z,22.94
2016-09-02T05:29:55.836Z,23
2016-09-02T05:30:30.214Z,23
2016-09-02T05:31:04.647Z,22.91
2016-09-02T05:31:38.930Z,23.01
2016-09-02T05:32:13.223Z,22.99
2016-09-02T05:32:47.522Z,22.99
2016-09-02T05:33:21.822Z,23
2016-09-02T05:33:56.116Z,22.97
2016-09-02T05:34:30.412Z,23
2016-09-02T05:35:14.123Z,23.06
2016-09-02T05:35:49.956Z,23.06
2016-09-02T05:36:24.864Z,22.96
2016-09-02T05:36:59.919Z,22.97
2016-09-02T05:37:34.236Z,23
2016-09-02T05:38:09.598Z,23
2016-09-02T05:38:43.898Z,23
2016-09-02T05:39:18.382Z,23.06
2016-09-02T05:39:53.546Z,23.03
2016-09-02T05:40:28.143Z,23.06
2016-09-02T05:41:02.444Z,23.01
2016-09-02T05:41:36.744Z,23.04
2016-09-02T05:42:11.034Z,22.99
2016-09-02T05:42:45.338Z,22.99
2016-09-02T05:43:19.637Z,23.01
2016-09-02T05:43:53.928Z,23.01
2016-09-02T05:44:28.195Z,23.03
2016-09-02T05:45:02.507Z,23.01
2016-09-02T05:45:36.936Z,23.16
2016-09-02T05:46:11.294Z,23.06
2016-09-02T05:46:45.844Z,23.12
2016-09-02T05:47:20.142Z,23.07
2016-09-02T05:47:54.457Z,23.06
2016-09-02T05:48:29.675Z,23.06
2016-09-02T05:49:04.902Z,23.06
2016-09-02T05:49:40.293Z,23.16
2016-09-02T05:50:16.035Z,23.04
2016-09-02T05:50:52.643Z,23.19
2016-09-02T05:51:27.719Z,23.06
2016-09-02T05:52:04.238Z,23.1
2016-09-02T05:52:40.515Z,23.09
2016-09-02T05:53:15.865Z,23.07
2016-09-02T05:53:51.460Z,23.22
2016-09-02T05:54:26.794Z,23.07
2016-09-02T05:55:02.332Z,23.1
2016-09-02T05:55:37.844Z,23.24
2016-09-02T05:56:12.962Z,23.14
2016-09-02T05:56:48.423Z,23.12
2016-09-02T05:57:24.729Z,23.06
2016-09-02T05:57:59.772Z,23.1
2016-09-02T05:58:35.591Z,23.07
2016-09-02T05:59:10.770Z,23.14
2016-09-02T05:59:48.695Z,23.15
2016-09-02T06:00:25.665Z,23.21
2016-09-02T06:01:01.099Z,23.25
2016-09-02T06:01:36.308Z,23.19
2016-09-02T06:02:11.801Z,23.25
2016-09-02T06:02:46.374Z,23.25
2016-09-02T06:03:20.914Z,23.28
2016-09-02T06:03:55.505Z,23.26
2016-09-02T06:04:30.641Z,23.28
2016-09-02T06:05:08.951Z,23.28
2016-09-02T06:05:45.755Z,23.26
2016-09-02T06:06:20.211Z,23.41
2016-09-02T06:06:54.498Z,23.4
2016-09-02T06:07:28.964Z,23.26
2016-09-02T06:08:05.043Z,23.42
2016-09-02T06:08:40.618Z,23.38
2016-09-02T06:09:16.278Z,23.41
2016-09-02T06:09:52.154Z,23.38
2016-09-02T06:10:28.419Z,23.41
2016-09-02T06:11:02.726Z,23.47
2016-09-02T06:11:37.342Z,23.38
2016-09-02T06:12:11.663Z,23.41
2016-09-02T06:12:45.960Z,23.42
2016-09-02T06:13:20.264Z,23.42
2016-09-02T06:13:54.579Z,23.45
2016-09-02T06:14:28.873Z,23.42
2016-09-02T06:15:03.216Z,23.44
2016-09-02T06:15:44.551Z,23.44
2016-09-02T06:16:24.540Z,23.42
2016-09-02T06:17:04.556Z,23.48
2016-09-02T06:17:47.033Z,23.45
2016-09-02T06:18:28.646Z,23.55
2016-09-02T06:19:05.574Z,23.52
2016-09-02T06:19:46.529Z,23.57
2016-09-02T06:20:25.151Z,23.52
2016-09-02T06:21:05.045Z,23.59
2016-09-02T06:21:44.028Z,23.59
2016-09-02T06:22:24.045Z,23.59
2016-09-02T06:23:02.559Z,23.62
2016-09-02T06:23:37.649Z,23.7
2016-09-02T06:24:17.549Z,23.64
2016-09-02T06:24:57.042Z,23.67
2016-09-02T06:25:35.051Z,23.7
2016-09-02T06:26:13.594Z,23.66
2016-09-02T06:26:52.547Z,23.75
2016-09-02T06:27:30.632Z,23.72
2016-09-02T06:28:08.556Z,23.77
2016-09-02T06:28:46.532Z,23.82
2016-09-02T06:29:23.347Z,23.85
2016-09-02T06:29:58.382Z,23.77
2016-09-02T06:30:37.533Z,23.84
2016-09-02T06:31:16.552Z,23.92
2016-09-02T06:31:53.546Z,23.94
2016-09-02T06:32:34.048Z,23.93
2016-09-02T06:33:11.550Z,23.99
2016-09-02T06:33:49.540Z,23.93
2016-09-02T06:34:28.047Z,23.93
2016-09-02T06:35:04.727Z,23.92
2016-09-02T06:35:42.056Z,23.94
2016-09-02T06:36:21.152Z,24
2016-09-02T06:36:59.565Z,24
2016-09-02T06:37:40.558Z,24.11
2016-09-02T06:38:18.046Z,24.04
2016-09-02T06:38:58.041Z,24.07
2016-09-02T06:39:37.052Z,24.14
2016-09-02T06:40:17.052Z,24.15
2016-09-02T06:41:04.056Z,24.11
2016-09-02T06:41:50.158Z,24.12
2016-09-02T06:42:27.558Z,24.19
2016-09-02T06:43:05.043Z,24.21
2016-09-02T06:43:43.609Z,24.26
2016-09-02T06:44:20.523Z,24.29
2016-09-02T06:44:57.534Z,24.26
2016-09-02T06:45:32.547Z,24.29
2016-09-02T06:46:06.959Z,24.3
2016-09-02T06:46:42.546Z,24.36
2016-09-02T06:47:18.669Z,24.36
2016-09-02T06:47:55.050Z,24.48
2016-09-02T06:48:33.058Z,24.39
2016-09-02T06:49:11.610Z,24.44
2016-09-02T06:49:47.443Z,24.52
2016-09-02T06:50:22.237Z,24.45
2016-09-02T06:50:57.374Z,24.46
2016-09-02T06:51:33.110Z,24.58
2016-09-02T06:52:07.640Z,24.49
2016-09-02T06:52:42.239Z,24.64
2016-09-02T06:53:17.551Z,24.64
2016-09-02T06:53:53.548Z,24.59
2016-09-02T06:54:29.821Z,24.63
2016-09-02T06:55:05.726Z,24.69
2016-09-02T06:55:47.588Z,24.77
2016-09-02T06:56:22.659Z,24.74
2016-09-02T06:56:58.044Z,24.77
2016-09-02T06:57:34.395Z,24.85
2016-09-02T06:58:12.050Z,24.77
2016-09-02T06:58:50.079Z,24.77
2016-09-02T06:59:27.567Z,24.85
2016-09-02T07:00:02.891Z,24.85
2016-09-02T07:00:37.206Z,24.92
2016-09-02T07:01:12.591Z,24.9
2016-09-02T07:01:50.048Z,24.96
2016-09-02T07:02:27.153Z,24.93
2016-09-02T07:03:04.060Z,25.01
2016-09-02T07:03:42.459Z,25.05
2016-09-02T07:04:19.553Z,25.05
2016-09-02T07:04:58.078Z,25.04
2016-09-02T07:05:34.929Z,25
2016-09-02T07:06:12.563Z,25.11
2016-09-02T07:06:48.695Z,25.02
2016-09-02T07:07:23.274Z,25.09
2016-09-02T07:07:59.009Z,25.08
2016-09-02T07:08:37.705Z,25.12
2016-09-02T07:09:15.071Z,25.14
2016-09-02T07:09:54.483Z,25.08
2016-09-02T07:10:29.486Z,25.14
2016-09-02T07:11:04.045Z,25.15
2016-09-02T07:11:39.863Z,25.17
2016-09-02T07:12:16.095Z,25.22
2016-09-02T07:12:54.041Z,25.12
2016-09-02T07:13:29.936Z,25.17
2016-09-02T07:14:07.057Z,25.29
2016-09-02T07:14:44.573Z,25.24
2016-09-02T07:15:24.057Z,25.22
2016-09-02T07:16:00.577Z,25.22
2016-09-02T07:16:39.558Z,25.24
2016-09-02T07:18:41.577Z,25.23
2016-09-02T07:19:22.068Z,25.32
2016-09-02T07:20:01.983Z,25.34
2016-09-02T07:20:52.579Z,25.32
2016-09-02T07:21:33.648Z,25.34
2016-09-02T07:22:12.093Z,25.3
2016-09-02T07:22:52.609Z,25.41
2016-09-02T07:23:35.084Z,25.44
2016-09-02T07:24:21.562Z,25.39
2016-09-02T07:25:00.496Z,25.41
2016-09-02T07:25:36.530Z,25.45
2016-09-02T07:26:16.947Z,25.57
2016-09-02T07:26:53.076Z,25.54
2016-09-02T07:27:28.698Z,25.63
2016-09-02T07:28:03.134Z,25.57
2016-09-02T07:28:37.416Z,25.66
2016-09-02T07:29:11.709Z,25.6
2016-09-02T07:29:46.018Z,25.56
2016-09-02T07:30:20.325Z,25.66
2016-09-02T07:30:54.642Z,25.67
2016-09-02T07:31:28.943Z,25.67
2016-09-02T07:32:03.234Z,25.71
2016-09-02T07:32:37.556Z,25.74
2016-09-02T07:33:11.858Z,25.74
2016-09-02T07:33:46.137Z,25.76